Date,TemperatureHighF,TemperatureAvgF,TemperatureLowF,DewpointHighF,DewpointAvgF,DewpointLowF,HumidityHigh,HumidityAvg,HumidityLow,PressureMaxIn,PressureMinIn,WindSpeedMaxMPH,WindSpeedAvgMPH,GustSpeedMaxMPH,PrecipitationSumIn
2014-1-1,51.8,40.0,27.7,39.2,30.8,23.4,84,71,51,30.44,30.14,5,1,6,0.00
2014-1-2,49.5,46.2,45.0,45.0,41.1,39.2,85,82,79,30.14,29.95,3,0,3,0.25
2014-1-3,32.0,26.2,17.6,16.5,11.6,7.6,77,55,40,30.59,30.41,11,2,11,0.00
2014-1-4,47.7,35.9,24.3,30.8,19.2,13.1,79,53,28,30.43,30.20,12,2,12,0.00
2014-1-5,54.5,44.9,32.4,48.1,37.5,26.6,83,75,68,30.22,29.81,17,3,17,0.22
2014-1-6,23.0,14.7,9.9,15.7,3.9,-2.7,73,62,55,30.64,30.30,0,0,0,0.22
2014-1-7,17.1,14.0,7.0,6.9,3.4,-3.5,64,62,57,30.63,30.60,0,0,0,0.24
2014-1-8,32.0,15.3,14.7,7.6,7.2,6.5,72,70,63,30.61,30.52,0,0,0,0.24
2014-1-9,46.9,33.3,31.1,36.6,20.7,18.5,67,60,57,30.53,30.41,8,1,8,0.24
2014-1-12,45.9,45.4,45.0,30.2,30.0,29.6,55,55,54,30.20,30.19,0,0,0,0.24
2014-1-13,52.9,50.0,43.0,46.9,41.7,32.7,84,74,52,30.18,29.93,8,1,8,0.77
2014-1-14,58.5,49.3,41.2,47.6,38.8,33.8,85,69,40,30.13,29.94,4,0,4,0.01
2014-1-15,46.0,38.9,25.2,36.6,20.9,11.0,73,50,28,30.25,30.12,12,3,12,0.00
2014-1-16,48.9,41.3,20.5,26.3,20.7,14.7,81,46,29,30.23,29.98,11,2,11,0.00
2014-1-17,43.5,34.5,28.0,27.8,19.2,13.3,79,55,37,30.26,30.01,15,3,15,0.00
2014-1-18,48.0,36.2,18.9,19.9,14.0,8.3,80,45,20,30.30,29.99,12,2,12,0.00
2014-1-19,49.5,39.8,29.1,29.3,25.5,19.6,79,58,37,30.26,30.00,8,1,9,0.00
2014-1-20,64.6,43.4,27.0,33.1,26.4,21.4,81,56,23,30.14,29.94,6,0,6,0.00
2014-1-21,46.6,33.9,18.7,33.6,20.9,6.0,73,58,46,30.29,29.90,18,4,18,0.00
2014-1-22,34.7,23.3,15.4,11.8,6.4,-0.5,69,50,24,30.32,30.19,8,2,8,0.00
2014-1-23,30.9,22.7,16.3,14.9,5.1,-8.0,78,49,26,30.78,30.30,14,3,14,0.00
2014-1-24,28.6,18.2,7.9,4.1,-0.9,-7.0,63,44,22,30.80,30.28,8,1,8,0.00
2014-1-25,45.5,31.9,15.4,18.8,11.7,3.0,72,44,28,30.28,30.00,8,1,8,0.00
2014-1-26,26.2,26.2,26.2,18.2,18.2,18.2,71,71,71,30.08,30.08,0,0,0,0.00
2014-1-27,38.3,29.1,20.5,22.7,5.4,-16.2,71,42,10,30.08,29.82,15,4,15,0.00
2014-1-28,20.5,17.8,11.5,7.5,1.4,-3.7,64,49,35,30.15,30.04,14,4,14,0.00
2014-1-29,12.0,10.4,9.0,0.0,-3.1,-5.4,62,54,50,30.19,30.14,6,1,6,0.00
2014-1-30,44.6,27.0,7.7,12.1,1.1,-10.3,76,42,10,30.11,29.88,5,1,5,0.00
2014-1-31,58.5,40.1,23.9,31.8,21.6,8.7,68,49,30,29.98,29.85,5,1,5,0.00
2014-2-1,65.1,48.2,30.2,44.9,34.8,19.5,75,60,47,29.91,29.79,9,1,9,0.00
2014-2-2,60.3,45.4,37.6,53.0,39.7,32.9,86,80,71,29.85,29.66,17,4,17,1.37
2014-2-3,40.1,37.6,35.1,34.6,33.1,29.7,88,84,79,30.01,29.68,11,3,11,0.21
2014-2-4,59.0,46.6,35.8,53.9,41.7,31.4,89,83,76,29.98,29.57,10,3,10,0.44
2014-2-5,51.1,37.1,28.9,46.1,30.0,18.3,86,75,62,30.15,29.60,11,4,13,0.14
2014-2-6,33.6,29.8,27.1,22.8,21.0,19.0,77,70,60,30.21,30.11,11,4,11,0.00
2014-2-7,36.1,31.0,25.9,23.2,21.0,18.9,76,66,55,30.21,30.04,7,2,7,0.00
2014-2-8,48.2,38.9,30.9,35.6,30.0,22.5,81,70,57,30.07,29.91,5,1,5,0.00
2014-2-9,52.5,44.0,38.8,40.5,36.2,33.5,85,74,61,29.94,29.85,10,1,10,0.00
2014-2-10,39.6,34.8,30.7,33.6,26.4,16.3,84,72,55,30.04,29.89,12,4,12,0.00
2014-2-11,39.0,32.5,25.5,26.9,21.0,15.8,85,63,44,30.08,29.94,14,3,14,0.05
2014-2-12,36.7,34.8,33.3,28.4,23.6,17.9,81,65,46,29.95,29.89,5,1,5,0.13
2014-2-13,42.4,34.3,28.4,31.6,28.3,23.6,86,79,61,29.74,29.64,3,0,3,0.39
2014-2-14,52.2,45.7,26.4,41.7,37.4,22.5,86,73,61,29.69,29.49,17,2,17,0.24
2014-2-15,42.4,34.0,28.0,31.1,23.4,18.1,82,66,45,29.99,29.65,20,3,20,0.00
2014-2-16,60.8,45.1,28.6,35.5,29.6,23.5,82,58,30,29.94,29.85,8,1,8,0.00
2014-2-17,65.1,51.0,37.0,51.8,40.5,29.5,84,68,50,29.94,29.76,7,2,7,0.02
2014-2-18,70.0,55.0,33.3,54.9,41.9,28.7,85,65,34,29.99,29.77,7,2,7,0.04
2014-2-19,72.3,64.8,60.1,60.3,55.4,52.1,78,72,63,29.83,29.74,8,1,8,0.01
2014-2-20,74.1,64.5,59.2,61.6,56.9,52.1,86,76,63,29.75,29.54,15,4,15,0.96
2014-2-21,59.7,47.4,37.2,54.2,30.6,17.5,84,57,23,29.91,29.62,23,2,23,0.14
2014-2-22,68.9,49.7,33.4,39.2,26.0,6.8,82,49,10,29.95,29.78,8,1,8,0.00
2014-2-23,70.5,55.7,39.6,40.8,34.9,28.0,77,50,22,29.89,29.73,15,2,15,0.00
2014-2-24,55.0,45.5,34.7,36.3,22.7,13.3,72,44,19,30.03,29.88,13,3,13,0.00
2014-2-25,57.0,45.2,36.7,38.5,26.5,16.3,78,50,32,29.93,29.79,10,2,10,0.13
2014-2-26,42.1,35.0,25.2,23.5,11.1,0.5,61,38,19,29.90,29.76,14,4,14,0.00
2014-2-27,25.2,23.1,19.9,8.4,7.5,6.4,60,51,45,29.82,29.81,2,0,2,0.00
2014-2-28,57.0,50.9,45.5,34.8,17.8,0.3,65,32,10,29.94,29.83,4,1,11,0.02
2014-3-1,64.8,57.9,45.5,43.4,41.2,33.0,64,54,45,30.02,29.92,3,0,9,0.00
2014-3-2,75.6,60.8,43.3,57.2,48.8,35.4,76,65,51,29.95,29.69,4,1,11,0.00
2014-3-3,43.0,34.3,28.0,35.3,28.7,20.7,85,80,73,29.99,29.65,6,1,15,0.74
2014-3-4,44.8,40.0,30.4,33.5,31.1,23.1,80,70,62,30.05,29.94,2,0,4,0.00
2014-3-5,58.6,44.2,30.7,38.7,33.2,25.9,84,67,43,30.02,29.86,5,1,11,0.00
2014-3-6,55.4,44.5,34.3,35.5,30.7,20.6,81,62,27,29.93,29.79,3,0,8,0.02
2014-3-7,64.6,50.0,39.4,41.8,34.9,30.8,80,60,29,29.87,29.75,2,0,4,0.00
2014-3-8,69.3,52.2,35.2,46.0,37.6,29.6,81,61,31,29.98,29.85,4,0,7,0.00
2014-3-9,66.4,54.5,43.2,43.2,40.4,36.4,78,61,40,30.07,29.92,4,0,8,0.00
2014-3-10,71.8,57.2,44.2,47.7,41.6,35.7,77,59,28,29.96,29.69,3,0,8,0.00
2014-3-11,79.0,62.3,43.5,57.3,48.7,37.1,82,63,41,29.73,29.46,3,0,8,0.00
2014-3-12,65.1,53.2,36.7,56.6,41.2,25.3,75,64,50,29.92,29.37,8,2,16,0.01
2014-3-13,55.9,42.6,29.8,31.8,25.3,20.5,78,53,25,30.09,29.92,5,1,11,0.01
2014-3-14,74.3,53.3,33.1,35.7,30.1,23.7,78,47,19,30.06,29.84,4,1,12,0.00
2014-3-15,70.0,57.3,41.5,46.7,40.9,34.3,76,56,37,29.94,29.75,3,0,6,0.00
2014-3-16,65.3,57.6,43.0,58.4,50.7,38.5,89,78,66,29.75,29.38,5,1,14,1.05
2014-3-17,43.0,39.1,36.3,38.8,34.0,30.8,87,82,77,29.68,29.49,4,1,10,0.00
2014-3-18,54.1,47.7,39.0,46.0,41.2,34.8,85,78,70,29.81,29.61,4,1,9,0.00
2014-3-19,61.9,54.5,48.4,51.7,47.8,42.8,87,78,66,29.91,29.80,4,1,10,0.00
2014-3-20,64.4,52.0,41.7,42.5,32.4,16.8,82,53,17,30.01,29.88,6,1,14,0.00
2014-3-21,72.9,54.5,34.9,39.7,29.7,12.4,81,47,11,29.94,29.76,4,0,8,0.00
2014-3-22,70.5,58.3,46.4,48.2,41.9,37.0,74,56,36,29.87,29.78,4,0,10,0.00
2014-3-23,58.5,50.2,43.0,40.4,33.9,25.0,85,56,33,30.07,29.80,9,2,15,0.20
2014-3-24,59.5,47.4,33.1,26.6,19.8,7.4,64,37,13,30.08,29.81,4,1,9,0.00
2014-3-25,48.6,41.8,32.7,26.6,17.2,6.8,51,37,20,30.08,29.81,8,2,15,0.00
2014-3-26,54.3,39.7,28.0,26.5,14.5,0.8,64,40,12,30.22,30.03,5,1,10,0.00
2014-3-27,72.0,56.1,40.1,48.3,23.6,-99.9,79,32,10,30.04,29.76,8,2,18,0.12
2014-3-28,71.6,64.5,54.1,57.0,53.5,46.6,78,68,57,29.83,29.73,4,1,8,0.02
2014-3-29,62.2,54.9,46.0,54.9,46.9,37.9,86,74,68,29.99,29.60,8,2,18,0.12
2014-3-30,66.6,51.4,41.9,37.9,33.9,22.9,76,55,20,30.05,29.92,4,1,11,0.00
2014-3-31,80.6,57.1,35.6,42.6,16.7,-99.9,81,47,10,30.01,29.80,3,0,8,0.00
2014-4-1,84.4,68.6,53.6,48.3,35.3,-99.9,68,38,10,29.92,29.78,4,0,8,0.00
2014-4-2,83.7,67.7,52.5,59.1,52.1,44.1,74,59,27,29.91,29.79,4,0,9,0.00
2014-4-3,83.1,73.0,64.2,62.0,58.4,54.2,72,61,46,29.81,29.64,5,1,11,0.00
2014-4-4,72.5,65.0,52.5,61.1,54.3,40.6,80,69,54,29.86,29.55,4,1,15,0.01
2014-4-5,60.6,52.5,42.6,40.8,35.4,31.5,79,54,36,29.96,29.85,6,1,11,0.00
2014-4-6,68.4,56.4,47.7,50.8,41.5,34.6,83,59,35,29.88,29.61,7,1,11,0.00
2014-4-7,67.8,56.4,50.0,60.7,49.8,43.4,86,79,66,29.67,29.39,5,1,12,0.00
2014-4-8,68.9,50.0,41.2,46.6,42.0,37.3,87,75,37,29.67,29.59,3,0,15,0.00
2014-4-9,68.9,56.6,43.2,44.0,37.7,30.0,78,53,23,29.96,29.73,3,1,7,0.00
2014-4-10,78.3,66.9,41.5,45.6,38.5,31.1,79,40,19,30.02,29.85,4,1,10,0.00
2014-4-11,78.3,65.8,52.9,54.0,47.9,41.9,72,54,33,30.01,29.85,4,1,8,0.00
2014-4-12,82.9,68.5,52.9,59.5,51.1,45.5,77,57,31,29.98,29.80,4,0,11,0.00
2014-4-13,84.6,72.0,57.6,55.4,50.5,45.4,73,50,27,29.89,29.66,5,1,12,0.00
2014-4-14,73.0,65.0,60.3,61.4,55.7,52.1,81,73,50,29.74,29.53,6,0,14,0.79
2014-4-15,61.3,45.0,38.3,55.1,38.8,32.5,81,79,73,29.80,29.54,4,2,13,0.11
2014-4-16,65.7,49.3,33.4,39.0,26.1,19.0,72,45,17,30.11,29.95,5,1,10,0.00
2014-4-17,70.7,64.4,59.2,45.8,42.3,36.6,61,46,30,30.07,30.03,4,0,8,0.00
2014-4-18,65.8,60.6,53.2,47.0,43.0,37.2,74,53,43,30.09,29.94,3,0,8,0.00
2014-4-19,77.2,62.8,51.1,46.9,41.5,32.7,75,51,21,29.96,29.87,6,1,12,0.00
2014-4-20,80.1,63.8,47.3,50.6,44.9,39.1,79,54,26,30.06,29.88,3,0,6,0.00
2014-4-21,81.1,67.7,52.5,55.6,49.7,44.1,77,55,31,29.95,29.73,3,0,9,0.00
2014-4-22,75.6,67.0,63.1,65.1,58.4,48.7,86,74,56,29.73,29.62,2,0,4,0.07
2014-4-23,74.7,63.9,48.9,48.9,37.9,24.8,81,42,16,29.84,29.70,7,1,11,0.00
2014-4-24,83.5,67.9,45.9,59.5,46.1,36.6,76,49,24,29.81,29.54,4,0,9,0.00
2014-4-25,75.4,67.9,57.0,59.7,54.2,48.1,74,62,45,29.80,29.53,4,0,12,0.00
2014-4-26,84.0,67.4,50.7,55.6,46.7,34.8,80,54,18,29.83,29.70,4,0,8,0.00
2014-4-27,79.9,66.8,59.0,64.3,56.3,49.6,74,69,57,29.75,29.60,4,0,9,0.02
2014-4-28,82.9,73.3,66.7,68.5,62.6,57.4,79,69,58,29.63,29.37,5,1,15,0.06
2014-4-29,82.9,70.4,62.6,67.5,60.2,56.0,85,71,48,29.58,29.43,4,0,11,0.27
2014-4-30,73.0,65.0,56.3,60.7,52.8,42.2,82,66,44,29.82,29.53,4,0,9,0.25
2014-5-1,67.8,57.8,46.6,45.9,40.8,31.8,80,56,31,29.87,29.74,3,0,8,0.00
2014-5-2,69.4,59.6,49.8,49.4,41.5,32.4,78,55,26,29.81,29.72,4,0,8,0.00
2014-5-3,77.9,62.7,46.4,51.4,43.5,34.2,79,55,24,29.85,29.75,3,0,8,0.00
2014-5-4,86.9,70.2,52.0,55.2,48.7,42.2,78,51,22,29.91,29.76,2,0,4,0.00
2014-5-5,87.3,72.8,57.0,60.0,52.6,45.0,75,53,24,29.83,29.67,2,0,6,0.00
2014-5-6,86.7,72.0,57.0,60.9,54.1,48.6,75,56,30,29.78,29.68,3,0,8,0.00
2014-5-7,85.1,72.0,58.3,63.4,56.7,50.2,76,61,38,29.87,29.76,3,0,8,0.00
2014-5-8,86.7,75.4,61.2,63.6,57.2,51.1,74,56,30,29.97,29.84,2,0,8,0.00
2014-5-9,73.8,70.9,66.2,62.4,60.3,55.7,72,69,64,29.88,29.79,3,0,17,0.05
2014-5-10,83.3,73.8,65.3,65.7,60.8,55.8,75,65,51,29.86,29.76,3,0,8,0.00
2014-5-11,85.6,75.8,66.2,71.1,64.4,57.7,80,69,53,29.92,29.79,2,0,8,0.00
2014-5-12,87.8,78.0,68.0,69.6,64.7,59.2,77,65,49,29.94,29.84,3,0,10,0.00
2014-5-13,87.8,78.0,68.5,68.8,62.6,58.3,73,61,41,29.92,29.80,2,0,5,0.00
2014-5-14,81.1,71.1,57.6,68.4,61.2,51.1,80,71,63,29.85,29.68,4,0,11,0.32
2014-5-15,63.9,55.6,50.7,51.1,46.5,40.1,85,72,44,29.93,29.77,3,0,8,0.00
2014-5-16,68.0,57.3,48.2,48.3,40.1,28.3,80,57,26,29.92,29.85,4,0,12,0.00
2014-5-17,67.3,57.8,50.0,54.6,48.1,42.0,76,70,54,30.04,29.90,4,0,7,0.01
2014-5-18,66.0,59.7,55.8,59.1,53.5,49.0,88,80,73,30.02,29.95,4,0,6,0.15
2014-5-19,78.6,66.8,54.5,62.3,56.9,48.5,84,72,54,30.05,29.92,4,0,8,0.00
2014-5-20,84.9,73.5,61.3,63.6,55.9,49.5,77,57,30,30.01,29.86,3,0,7,0.00
2014-5-21,86.2,74.8,62.1,66.3,59.7,53.3,75,61,38,29.96,29.83,2,0,5,0.00
2014-5-22,86.9,76.0,63.1,67.5,62.2,55.1,77,64,45,29.94,29.82,4,0,9,0.00
2014-5-23,87.8,76.8,66.2,68.9,61.9,58.2,77,62,39,29.91,29.80,2,0,6,0.00
2014-5-24,87.1,76.5,64.9,68.1,62.4,56.4,76,63,43,29.92,29.81,3,0,6,0.00
2014-5-25,88.3,77.6,66.9,70.3,62.5,55.3,77,62,34,29.91,29.83,2,0,6,0.00
2014-5-26,88.3,78.0,67.5,69.8,64.1,56.9,73,63,46,29.95,29.83,3,0,7,0.00
2014-5-27,85.5,76.9,68.4,70.8,64.8,58.5,76,67,54,29.91,29.76,3,0,9,0.00
2014-5-28,72.0,69.5,67.1,62.4,60.4,57.8,78,73,68,29.82,29.78,1,0,2,0.12
2014-5-29,80.1,72.1,67.3,70.9,63.9,59.2,86,75,70,29.84,29.74,5,0,8,0.05
2014-5-30,87.6,75.4,69.4,72.4,64.7,61.3,81,71,46,29.86,29.75,4,0,11,0.01
2014-5-31,89.6,79.1,67.1,70.3,64.1,59.6,79,62,40,29.89,29.75,3,0,6,0.00
2014-6-1,85.6,76.2,70.5,71.2,65.9,61.0,77,71,56,29.94,29.85,4,0,10,0.05
2014-6-2,81.9,75.7,71.2,65.5,63.7,60.2,77,67,53,29.98,29.87,4,0,8,0.00
2014-6-3,85.5,76.6,68.0,71.5,65.8,58.6,79,70,58,29.92,29.76,2,0,6,0.00
2014-6-4,87.3,79.1,70.2,72.7,68.0,62.0,80,70,57,29.80,29.62,2,0,6,0.00
2014-6-5,88.5,74.5,66.7,74.2,64.6,58.6,86,72,56,29.80,29.52,8,0,20,0.06
2014-6-6,82.2,72.0,66.6,73.1,64.7,59.5,90,78,65,29.79,29.61,6,0,12,0.01
2014-6-7,87.1,76.2,67.1,74.6,66.5,60.7,86,73,52,29.80,29.65,5,0,16,0.25
2014-6-8,83.5,74.6,67.1,71.3,65.8,61.4,84,75,59,29.80,29.66,3,0,6,0.00
2014-6-9,82.6,73.6,67.6,70.6,65.4,60.7,90,76,66,29.74,29.62,6,0,17,0.21
2014-6-10,81.5,71.6,67.1,75.5,66.0,60.9,89,83,71,29.69,29.60,3,0,7,0.08
2014-6-11,81.0,72.5,68.0,70.1,65.4,61.1,90,79,64,29.65,29.56,2,0,8,0.05
2014-6-12,84.6,74.7,65.1,70.8,63.9,59.5,84,70,49,29.74,29.62,3,0,7,0.00
2014-6-13,82.2,74.8,70.2,69.2,64.1,61.2,78,70,58,29.79,29.65,3,0,8,0.00
2014-6-14,86.0,75.9,65.7,67.3,63.0,56.7,80,65,48,29.84,29.75,3,0,6,0.00
2014-6-15,90.5,80.0,69.1,71.9,65.0,60.8,76,62,39,29.92,29.79,2,0,5,0.00
2014-6-16,92.1,80.5,69.1,71.7,64.8,60.3,77,61,38,29.99,29.85,3,0,7,0.00
2014-6-17,91.8,81.6,70.3,73.3,67.9,61.3,76,64,48,29.97,29.83,2,0,4,0.00
2014-6-18,94.3,83.2,72.7,75.0,68.7,64.2,78,63,42,29.92,29.83,2,0,6,0.00
2014-6-19,91.9,84.7,72.7,72.4,68.3,63.5,76,59,44,29.95,29.82,2,0,7,0.00
2014-6-20,90.7,81.9,74.3,76.0,69.8,65.0,77,67,49,29.90,29.76,3,0,7,0.00
2014-6-21,92.1,82.5,73.4,76.0,68.4,64.1,81,64,40,29.80,29.65,2,0,6,0.00
2014-6-22,90.7,81.3,71.1,72.9,68.3,61.6,76,66,48,29.76,29.62,2,0,4,0.00
2014-6-23,90.9,80.0,71.6,71.7,67.2,61.9,76,66,50,29.80,29.69,3,0,8,0.00
2014-6-24,85.6,76.3,72.3,73.2,66.2,62.8,80,71,64,29.83,29.73,2,0,6,0.01
2014-6-25,88.5,78.5,71.2,74.1,68.4,64.4,85,72,50,29.87,29.75,4,0,7,0.01
2014-6-26,80.1,76.0,72.1,73.9,69.0,64.2,86,79,72,29.86,29.73,2,0,4,0.00
2014-6-27,85.5,75.7,70.5,74.1,68.3,64.0,87,78,61,29.92,29.82,2,0,4,0.02
2014-6-28,86.4,78.5,70.9,75.8,69.2,64.2,84,74,58,29.97,29.88,2,0,4,0.01
2014-6-29,86.7,76.5,72.9,76.0,68.7,64.6,85,77,69,29.98,29.86,4,0,9,0.06
2014-6-30,91.4,81.4,72.9,78.8,71.1,65.2,84,72,51,29.88,29.70,2,0,4,0.00
2014-7-1,92.8,82.9,72.5,76.3,70.1,64.0,81,67,39,29.81,29.66,2,0,5,0.00
2014-7-2,90.9,81.8,71.8,71.6,67.9,62.6,78,64,48,29.81,29.71,2,0,5,0.00
2014-7-3,83.8,77.2,70.3,67.1,59.9,53.0,77,57,37,29.93,29.79,5,0,8,0.00
2014-7-4,81.7,73.3,63.1,60.6,56.5,51.9,78,58,37,30.01,29.92,6,0,12,0.00
2014-7-5,87.3,76.1,61.0,65.5,59.8,53.0,76,58,42,30.01,29.89,4,0,9,0.00
2014-7-6,89.2,78.7,66.9,69.8,64.0,58.4,76,62,42,29.91,29.78,3,0,7,0.00
2014-7-7,89.4,80.0,69.4,69.6,65.9,61.2,77,63,41,29.85,29.73,2,0,4,0.00
2014-7-8,88.5,77.3,71.4,73.5,67.0,62.5,83,71,55,29.85,29.75,4,0,10,0.02
2014-7-9,84.7,76.0,70.2,72.3,67.8,64.3,84,76,62,29.86,29.76,2,0,4,0.00
2014-7-10,87.1,79.0,72.7,75.2,68.1,64.7,85,71,50,29.90,29.79,2,0,6,0.00
2014-7-11,90.3,80.1,69.1,70.5,64.3,58.0,78,61,36,29.95,29.86,3,0,6,0.00
2014-7-12,92.1,81.5,70.3,74.5,69.0,61.6,77,67,50,29.97,29.85,3,0,6,0.00
2014-7-13,89.8,82.1,74.8,75.7,71.4,66.2,77,70,56,29.92,29.78,2,0,8,0.00
2014-7-14,93.2,83.3,73.8,76.6,70.0,65.9,78,65,47,29.82,29.65,2,0,7,0.00
2014-7-15,83.8,76.6,70.0,72.8,64.1,54.7,80,66,43,29.74,29.65,3,0,8,0.01
2014-7-16,81.0,72.1,63.0,56.1,53.9,51.0,73,54,37,29.81,29.73,4,0,9,0.00
2014-7-17,81.1,72.3,63.1,62.2,55.6,50.7,75,58,36,29.85,29.78,3,0,8,0.00
2014-7-18,71.1,68.5,66.4,63.0,61.0,58.6,83,77,68,29.91,29.78,4,0,8,0.05
2014-7-19,82.8,74.8,68.4,76.7,68.4,63.0,90,81,67,29.80,29.73,3,0,7,0.00
2014-7-20,84.9,77.0,70.9,71.2,66.5,63.8,82,71,53,29.84,29.76,2,0,4,0.00
2014-7-21,86.0,77.3,70.9,74.0,68.6,62.7,82,75,63,29.87,29.78,4,0,9,0.00
2014-7-22,87.3,80.4,73.6,74.5,70.2,66.2,81,72,58,29.91,29.80,3,0,8,0.00
2014-7-23,88.5,78.4,74.1,76.4,70.5,66.2,87,77,61,29.88,29.73,4,0,8,0.00
2014-7-24,86.9,77.8,71.8,73.5,67.9,64.6,85,72,49,29.80,29.70,2,0,4,0.00
2014-7-25,88.0,77.2,66.9,69.9,64.3,59.6,81,66,44,29.86,29.75,3,0,5,0.00
2014-7-26,89.2,78.8,66.9,72.5,66.3,60.4,80,67,44,29.85,29.75,2,0,4,0.00
2014-7-27,91.9,83.3,73.2,77.3,72.1,65.8,80,70,55,29.82,29.68,2,0,7,0.00
2014-7-28,85.1,80.5,72.0,75.0,64.9,57.9,79,60,42,29.81,29.69,3,0,8,0.00
2014-7-29,78.4,72.0,64.0,62.9,56.3,45.2,78,60,32,29.88,29.78,4,0,9,0.00
2014-7-30,82.6,72.4,60.1,60.2,56.6,52.8,78,60,38,29.90,29.82,4,0,9,0.00
2014-7-31,82.2,74.3,68.7,64.7,61.4,57.3,77,65,44,29.88,29.81,2,0,4,0.00
2014-8-1,86.0,75.6,66.9,68.7,64.5,58.7,79,69,50,29.86,29.77,4,0,8,0.00
2014-8-2,87.1,75.6,70.0,71.1,65.8,62.7,80,72,52,29.89,29.79,4,0,8,0.01
2014-8-3,88.0,77.5,66.9,72.3,66.1,61.4,83,70,47,29.90,29.78,3,0,7,0.00
2014-8-4,89.1,78.6,68.4,70.1,63.9,58.1,79,63,36,29.88,29.77,4,0,8,0.00
2014-8-5,90.3,78.1,64.4,68.1,61.4,54.5,79,60,31,29.89,29.79,2,0,5,0.00
2014-8-6,91.8,81.0,69.1,72.0,66.5,61.0,76,63,43,29.86,29.74,2,0,5,0.00
2014-8-7,93.6,82.2,72.0,73.6,68.5,63.4,77,65,45,29.81,29.68,3,0,6,0.00
2014-8-8,92.7,79.9,73.2,74.6,69.3,64.8,78,71,50,29.81,29.69,4,0,9,0.00
2014-8-9,84.7,77.5,73.4,75.4,69.0,65.3,81,75,61,29.83,29.74,3,0,8,0.00
2014-8-10,89.2,77.4,73.8,78.3,69.9,66.3,84,78,60,29.83,29.73,2,0,4,0.00
2014-8-11,89.4,79.2,72.3,78.9,71.7,66.9,85,78,64,29.79,29.66,2,0,6,0.00
2014-8-12,87.4,79.2,72.1,73.3,67.0,61.4,83,68,45,29.77,29.64,3,0,8,0.00
2014-8-13,81.5,73.5,62.1,61.6,58.1,55.0,82,60,42,29.87,29.76,5,0,9,0.00
2014-8-14,84.2,73.2,60.3,62.5,58.1,53.7,80,61,39,29.90,29.77,3,0,8,0.00
2014-8-15,86.7,75.3,63.0,66.2,60.6,56.3,80,63,37,29.86,29.75,3,0,8,0.00
2014-8-16,89.4,77.7,65.8,69.0,62.9,58.8,79,63,37,29.83,29.74,2,0,4,0.00
2014-8-17,90.9,77.9,69.4,74.2,68.2,61.5,82,73,52,29.80,29.69,3,0,9,0.00
2014-8-18,85.6,75.8,72.1,77.3,69.1,64.9,90,80,70,29.74,29.63,2,0,6,0.02
2014-8-19,89.4,79.5,72.0,76.9,71.1,66.5,86,76,58,29.73,29.63,2,0,4,0.00
2014-8-20,94.1,83.5,74.1,78.2,71.9,66.8,81,69,49,29.89,29.71,2,0,5,0.00
2014-8-21,93.9,83.0,72.1,74.2,69.9,64.1,78,66,46,29.92,29.82,2,0,5,0.00
2014-8-22,94.1,83.8,74.7,76.5,70.0,63.8,81,65,38,29.91,29.76,2,0,7,0.00
2014-8-23,94.1,82.7,74.5,75.8,71.1,67.0,79,69,48,29.83,29.69,2,0,7,0.00
2014-8-24,91.2,82.0,74.5,75.3,70.7,66.2,77,69,50,29.78,29.67,4,0,8,0.00
2014-8-25,86.4,80.8,75.9,71.3,69.2,67.4,78,68,56,29.85,29.76,4,0,9,0.00
2014-8-26,88.0,79.4,71.2,69.2,65.3,61.3,77,63,45,29.94,29.81,4,0,8,0.00
2014-8-27,90.3,79.4,69.1,71.6,65.3,60.8,80,64,39,29.89,29.77,4,0,8,0.00
2014-8-28,93.2,80.9,70.0,71.5,65.1,59.0,78,61,34,29.84,29.72,3,0,7,0.00
2014-8-29,92.5,81.1,69.6,68.8,64.3,58.7,77,59,34,29.84,29.74,3,0,9,0.00
2014-8-30,92.1,78.2,72.1,73.6,68.2,64.3,82,72,52,29.90,29.78,3,0,9,0.00
2014-8-31,82.2,75.3,71.4,76.3,69.8,65.8,91,83,73,29.92,29.84,3,0,10,0.01
2014-9-1,91.6,81.1,72.9,76.2,70.1,66.7,84,71,46,29.89,29.78,1,0,4,0.00
2014-9-2,93.0,82.0,73.4,75.5,70.3,65.7,79,69,49,29.88,29.70,2,0,4,0.00
2014-9-3,88.7,80.1,74.8,75.9,70.5,67.1,80,73,58,29.85,29.74,3,0,8,0.00
2014-9-4,87.6,79.8,72.9,75.1,70.5,65.9,82,74,59,29.92,29.81,2,0,4,0.00
2014-9-5,90.5,79.7,74.3,76.7,71.2,67.2,84,76,57,29.96,29.83,3,0,8,0.00
2014-9-6,91.6,80.5,72.0,75.1,69.8,65.2,82,71,52,29.88,29.72,1,0,4,0.00
2014-9-7,87.1,78.8,72.7,73.6,68.8,65.4,79,72,58,29.84,29.74,4,0,8,0.00
2014-9-8,86.5,77.2,69.8,73.5,67.7,62.6,79,73,58,29.87,29.75,2,0,4,0.00
2014-9-9,90.7,78.9,72.9,75.8,69.8,65.6,83,74,55,29.87,29.74,4,0,13,0.00
2014-9-10,89.2,81.1,73.0,74.1,69.6,65.4,78,69,54,29.81,29.67,3,0,8,0.00
2014-9-11,92.1,80.8,75.4,76.8,71.8,67.7,85,74,51,29.82,29.72,5,0,9,0.00
2014-9-12,83.3,76.8,72.0,73.5,68.8,65.6,81,76,70,29.88,29.77,2,0,5,0.00
2014-9-13,74.1,68.9,63.1,65.6,61.0,57.2,82,76,65,30.00,29.86,4,1,9,0.00
2014-9-14,82.9,71.0,59.7,64.6,59.7,53.5,82,69,49,30.02,29.90,2,0,4,0.00
2014-9-15,84.0,74.6,66.4,72.1,66.2,59.7,80,76,61,29.97,29.86,3,0,7,0.00
2014-9-16,85.6,76.9,69.4,69.8,66.6,62.3,83,72,55,29.91,29.76,3,0,6,0.00
2014-9-17,79.9,71.6,65.8,62.3,57.3,51.0,79,63,38,29.82,29.69,2,0,6,0.00
2014-9-18,82.6,71.9,63.7,64.8,61.2,57.4,81,70,49,29.80,29.68,2,0,5,0.00
2014-9-19,86.9,75.1,65.7,68.5,63.5,58.6,80,68,48,29.88,29.76,4,0,8,0.00
2014-9-20,86.7,76.5,68.9,66.3,63.3,60.4,79,65,44,29.94,29.78,4,0,8,0.00
2014-9-21,88.3,76.5,64.9,69.4,63.6,54.4,82,66,45,29.85,29.69,4,0,9,0.00
2014-9-22,76.8,69.1,60.8,54.7,49.3,42.6,73,51,30,29.97,29.82,8,0,12,0.00
2014-9-23,80.4,67.1,53.6,56.9,51.5,46.3,81,60,33,30.03,29.91,4,0,8,0.00
2014-9-24,81.1,70.0,59.2,59.4,55.8,52.7,80,63,39,30.10,29.95,4,0,7,0.00
2014-9-25,83.5,71.3,59.7,62.5,57.0,53.2,80,63,37,30.06,29.89,3,0,8,0.04
2014-9-26,81.1,71.9,63.3,65.1,61.5,56.7,80,71,53,29.97,29.86,3,0,6,0.00
2014-9-27,77.9,71.3,64.8,64.4,60.8,58.1,80,70,55,29.96,29.86,4,0,10,0.00
2014-9-28,81.9,72.3,62.6,65.9,62.2,56.5,82,71,53,29.93,29.81,4,0,7,0.00
2014-9-29,84.6,74.6,68.0,67.7,63.0,58.7,79,68,42,29.84,29.68,2,0,8,0.00
2014-9-30,84.6,72.2,63.9,69.0,61.5,57.6,83,71,43,29.78,29.64,2,0,4,0.00
2014-10-1,87.4,73.6,63.3,67.3,59.9,56.2,82,65,36,29.79,29.70,2,0,4,0.00
2014-10-2,88.3,76.8,64.8,68.0,63.1,58.1,79,64,44,29.86,29.68,2,0,8,0.00
2014-10-3,79.0,70.2,61.5,69.0,60.7,52.2,83,73,49,29.79,29.57,4,0,11,0.00
2014-10-4,64.6,55.9,44.8,52.2,33.9,19.0,81,47,19,29.87,29.73,4,1,11,0.00
2014-10-5,72.0,56.9,41.2,48.8,40.7,34.8,84,59,30,29.84,29.67,2,0,7,0.00
2014-10-6,73.6,63.2,54.1,61.2,54.7,47.4,82,74,61,29.77,29.69,2,0,5,0.00
2014-10-7,81.5,70.1,61.0,68.6,61.8,55.4,85,76,56,29.83,29.70,3,0,8,0.00
2014-10-8,82.6,73.4,66.2,70.9,64.5,58.7,82,74,58,29.92,29.78,2,0,4,0.00
2014-10-9,84.6,72.8,63.3,68.4,63.0,57.4,83,72,52,29.93,29.80,1,0,4,0.00
2014-10-10,83.7,74.5,68.2,72.5,66.4,61.0,85,76,63,29.83,29.71,2,0,6,0.00
2014-10-11,77.7,70.2,65.7,69.5,64.1,60.0,86,81,71,29.88,29.73,4,0,8,0.00
2014-10-12,76.8,68.7,65.7,72.0,64.1,60.4,93,85,71,29.83,29.75,3,0,8,0.02
2014-10-13,82.8,72.4,66.0,71.1,65.4,60.5,86,79,60,29.81,29.57,5,1,13,0.08
2014-10-14,68.9,64.3,59.0,64.2,57.3,52.1,86,78,66,29.68,29.41,4,0,10,0.01
2014-10-15,63.7,59.4,55.2,54.9,52.0,48.9,89,77,61,29.71,29.64,2,0,8,0.00
2014-10-16,70.3,60.6,53.2,54.0,51.2,48.5,85,73,48,29.76,29.66,4,0,7,0.00
2014-10-17,80.8,64.8,51.1,59.3,53.7,46.2,86,70,42,29.76,29.63,2,0,4,0.00
2014-10-18,70.9,61.7,54.0,55.1,49.1,44.9,84,65,40,29.93,29.70,3,0,9,0.00
2014-10-19,67.6,56.6,47.1,49.9,45.6,42.1,85,68,45,30.01,29.87,4,0,8,0.00
2014-10-20,70.0,57.5,46.2,53.7,47.7,41.7,85,72,43,29.92,29.77,2,0,4,0.00
2014-10-21,73.2,60.8,50.0,56.1,47.4,42.2,86,64,34,29.88,29.77,3,0,8,0.00
2014-10-22,66.2,56.7,46.4,46.8,42.3,38.3,82,60,37,30.01,29.87,4,0,10,0.00
2014-10-23,68.9,55.7,43.5,45.2,41.8,37.5,83,62,33,29.99,29.85,3,0,8,0.00
2014-10-24,71.6,58.9,49.5,47.4,43.3,33.5,83,60,26,29.93,29.82,3,0,6,0.00
2014-10-25,77.4,60.6,45.5,60.8,51.1,40.3,84,72,54,29.93,29.79,2,0,6,0.00
2014-10-26,81.9,66.5,56.5,68.1,58.7,51.2,89,77,52,29.86,29.73,2,0,8,0.00
2014-10-27,83.5,69.0,57.6,68.7,58.6,53.1,86,71,43,29.87,29.75,2,0,6,0.00
2014-10-28,77.4,67.6,59.4,65.9,59.8,53.5,83,77,64,29.93,29.80,2,0,6,0.00
2014-10-29,68.0,59.5,48.6,58.4,47.2,36.9,86,66,32,29.94,29.82,5,0,12,0.24
2014-10-30,64.9,53.6,44.2,44.8,39.4,31.5,83,62,30,29.96,29.81,3,0,7,0.00
2014-10-31,59.4,48.3,39.6,48.1,39.5,24.5,85,72,50,29.96,29.75,4,1,14,0.01
2014-11-1,48.2,41.7,37.2,32.2,28.1,24.2,76,59,49,30.16,29.92,4,1,11,0.00
2014-11-2,56.8,42.7,30.0,33.0,26.3,9.0,83,58,16,30.28,30.15,7,0,11,0.00
2014-11-3,66.6,50.7,37.4,39.4,32.2,16.8,81,56,15,30.25,30.11,3,0,5,0.00
2014-11-4,71.1,57.3,45.9,44.0,36.2,20.2,76,51,15,30.14,29.97,3,0,8,0.00
2014-11-5,68.4,61.7,55.6,59.0,53.5,42.7,85,75,61,30.02,29.90,2,0,4,0.08
2014-11-6,66.0,59.2,46.6,58.6,45.7,25.5,89,64,23,29.97,29.83,4,1,11,0.00
2014-11-7,55.9,46.6,38.8,37.2,33.0,29.7,83,60,39,30.01,29.85,5,0,11,0.00
2014-11-8,62.6,49.2,35.4,42.3,35.4,27.6,86,63,28,29.86,29.73,2,0,5,0.00
2014-11-9,60.1,48.0,39.2,42.1,37.7,34.2,85,69,39,29.91,29.76,4,0,7,0.00
2014-11-10,69.3,52.2,35.8,45.3,36.4,30.7,86,60,25,29.87,29.70,4,0,8,0.00
2014-11-11,75.6,60.6,43.2,58.3,50.1,37.7,84,70,49,29.85,29.68,4,0,11,0.00
2014-11-12,49.6,41.1,37.9,44.4,33.4,28.7,83,74,66,30.06,29.85,4,1,11,0.00
2014-11-13,38.8,35.6,28.0,28.9,20.5,11.1,70,55,37,30.15,30.03,3,1,7,0.00
2014-11-14,38.3,30.9,24.4,14.8,12.8,9.5,62,48,32,30.20,30.12,5,0,11,0.00
2014-11-15,50.7,40.0,25.5,28.4,21.0,13.7,65,48,30,30.19,30.00,3,0,8,0.00
2014-11-16,57.0,46.7,41.7,53.2,38.8,28.6,88,75,48,30.02,29.54,4,0,11,0.02
2014-11-17,54.7,37.1,23.4,51.2,27.3,10.7,89,69,46,30.08,29.55,4,1,11,0.02
2014-11-18,33.1,26.3,21.2,15.6,9.1,1.7,76,50,27,30.26,30.10,4,1,8,0.00
2014-11-19,52.9,37.4,20.7,24.4,18.1,14.5,77,50,22,30.22,29.98,3,0,9,0.00
2014-11-20,60.8,45.9,35.4,32.2,26.5,19.9,73,48,28,30.08,29.99,3,0,11,0.00
2014-11-21,61.0,48.8,38.3,36.3,28.2,19.9,72,47,27,30.21,30.08,4,0,8,0.00
2014-11-22,65.8,55.2,43.0,38.2,32.2,26.8,53,42,29,30.19,29.86,4,0,11,0.00
2014-11-23,64.6,58.1,54.0,57.7,49.9,34.0,88,75,41,29.86,29.27,5,1,15,0.06
2014-11-24,66.0,58.5,43.0,56.7,46.1,35.0,81,65,42,29.89,29.38,3,0,8,0.00
2014-11-25,56.3,46.2,34.0,37.9,30.4,22.8,87,57,28,29.98,29.86,1,0,8,0.00
2014-11-26,54.7,44.5,31.8,35.5,27.3,21.3,77,53,29,29.98,29.80,4,0,8,0.00
2014-11-27,43.7,39.5,31.6,32.6,27.6,21.6,83,63,48,30.28,29.94,4,1,9,0.00
2014-11-28,50.7,37.9,26.1,24.2,19.4,9.7,77,51,21,30.28,30.00,3,0,7,0.00
2014-11-29,61.2,49.8,33.4,48.6,36.1,21.6,72,59,48,30.02,29.87,3,0,8,0.00
2014-11-30,71.1,63.2,55.9,54.6,51.9,48.8,79,68,50,30.07,29.90,4,0,9,0.00
2014-12-1,70.9,58.5,47.8,60.3,51.9,42.5,89,79,65,30.16,30.05,4,0,7,0.00
2014-12-2,55.8,51.4,47.8,52.6,47.9,42.6,92,88,82,30.12,30.01,2,0,3,0.07
2014-12-3,62.4,54.9,49.8,53.2,49.8,46.1,93,83,65,30.12,30.02,5,0,8,0.01
2014-12-4,72.9,58.5,47.1,58.3,51.1,43.5,88,78,56,30.09,29.95,2,0,4,0.00
2014-12-5,72.0,64.2,58.1,58.9,56.3,53.0,85,76,62,30.08,29.90,4,1,12,0.04
2014-12-6,66.4,56.4,45.3,61.5,50.4,38.7,89,80,71,30.20,29.86,7,1,17,0.07
2014-12-7,53.8,47.0,41.4,38.9,34.9,32.1,79,64,44,30.25,30.07,8,1,13,0.00
2014-12-8,54.3,46.8,41.2,35.9,30.0,23.3,80,54,35,30.12,30.00,4,0,12,0.00
2014-12-9,56.3,44.4,37.2,40.8,32.2,24.3,85,64,41,30.07,29.91,5,1,14,0.00
2014-12-10,44.2,40.0,31.6,31.2,28.6,25.9,79,64,54,30.10,30.00,5,1,10,0.00
2014-12-11,46.2,36.4,29.3,27.3,25.3,23.2,80,65,44,30.13,30.00,3,0,6,0.00
2014-12-12,52.9,39.4,27.1,27.3,24.3,20.7,80,57,28,30.23,30.09,3,0,6,0.00
2014-12-13,47.7,40.0,28.9,37.2,31.1,22.7,78,70,64,30.17,30.02,4,0,15,0.00
2014-12-14,54.1,44.6,35.1,39.8,35.2,29.8,82,70,57,30.03,29.89,4,1,9,0.00
2014-12-15,58.5,46.2,32.9,50.8,39.7,28.6,87,79,55,29.91,29.68,3,0,8,0.01
2014-12-16,55.4,48.4,37.9,51.6,39.6,32.3,87,72,59,30.06,29.69,2,0,7,0.00
2014-12-17,46.0,42.3,37.0,36.8,33.9,29.9,81,72,63,30.11,30.01,3,0,8,0.00
2014-12-18,45.3,41.3,36.3,35.8,32.4,29.2,81,71,61,30.06,29.97,3,0,8,0.00
2014-12-19,44.2,39.7,32.5,32.3,29.9,27.4,86,68,55,30.07,29.98,3,0,7,0.00
2014-12-20,52.7,43.3,35.2,31.2,28.8,26.4,77,58,39,30.07,29.97,4,0,8,0.00
2014-12-21,55.0,43.2,29.8,44.3,34.1,24.1,81,70,57,30.04,29.82,2,0,7,0.00
2014-12-22,51.4,50.5,49.3,47.7,45.0,43.4,87,81,77,29.82,29.55,4,1,10,0.01
2014-12-23,55.6,53.4,51.4,53.3,50.0,47.6,92,88,83,29.61,29.40,4,0,11,0.06
2014-12-24,56.7,50.1,42.4,54.1,46.2,36.6,92,87,76,29.79,29.35,2,0,9,0.02
2014-12-25,50.9,42.4,35.4,37.9,35.4,31.3,92,77,57,30.07,29.79,0,0,0,0.00
2014-12-26,54.1,43.2,31.6,42.6,36.6,27.9,89,78,61,30.17,30.03,0,0,0,0.00
2014-12-27,56.3,51.6,42.6,50.5,43.5,37.2,87,74,62,30.11,29.87,0,0,0,0.00
2014-12-28,56.1,51.0,44.1,53.2,47.8,41.3,93,89,81,29.94,29.82,3,0,7,0.00
2014-12-29,47.3,43.7,41.0,43.3,40.4,38.3,92,88,83,30.03,29.89,3,0,7,0.00
2014-12-30,44.6,39.4,33.4,38.4,30.0,21.4,92,70,50,30.32,30.03,5,1,11,0.00
2014-12-31,44.8,36.3,29.8,23.3,20.3,14.9,66,53,30,30.35,30.20,5,1,10,0.00
2015-1-1,46.8,39.6,32.2,35.7,27.4,20.9,81,62,37,30.21,30.07,0,0,2,0.00
2015-1-2,50.2,44.9,41.4,47.1,41.1,35.7,89,86,80,30.18,29.93,2,0,8,0.00